Time;durP1;ratioP1;P1;durP2;ratioP2;P2;SDS_P1;SDS_P2;PMS_P1;PMS_P2;Temp;Humidity;BMP_temperature;BMP_pressure;BME280_temperature;BME280_humidity;BME280_pressure;Samples;Min_cycle;Max_cycle;Signal;HPM_P1;HPM_P2
2022/03/06 00:00:47;;;;;;;11.88;6.68;;;3.20;97.00;;;;;;4167969;28;20050;-87
2022/03/06 00:02:49;;;;;;;12.25;6.82;;;2.70;96.90;;;;;;4184594;28;20116;-87
2022/03/06 00:04:51;;;;;;;10.95;6.18;;;2.60;97.00;;;;;;4151505;28;20085;-88
2022/03/06 00:06:51;;;;;;;11.15;5.50;;;3.40;97.20;;;;;;4168442;28;20037;-87
2022/03/06 00:08:52;;;;;;;26.15;7.85;;;2.30;97.00;;;;;;4167826;28;20037;-85
2022/03/06 00:10:57;;;;;;;11.70;7.07;;;2.00;97.00;;;;;;4167770;28;20138;-87
2022/03/06 00:12:58;;;;;;;9.88;6.00;;;2.10;97.10;;;;;;4169278;28;20077;-86
2022/03/06 00:15:00;;;;;;;10.10;5.57;;;2.10;97.00;;;;;;4167141;28;20067;-87
2022/03/06 00:17:01;;;;;;;8.38;5.45;;;2.50;97.10;;;;;;4167722;28;20053;-87
2022/03/06 00:19:04;;;;;;;8.85;5.28;;;3.20;97.40;;;;;;4168179;28;20060;-87
2022/03/06 00:21:05;;;;;;;10.88;5.95;;;3.50;97.60;;;;;;4167674;28;20049;-87
2022/03/06 00:23:07;;;;;;;11.55;5.63;;;2.80;97.30;;;;;;4168926;28;20506;-88
2022/03/06 00:25:08;;;;;;;9.35;5.30;;;3.20;97.40;;;;;;4166820;28;20491;-88
2022/03/06 00:27:12;;;;;;;10.73;5.28;;;2.10;97.00;;;;;;4168369;28;20427;-88
2022/03/06 00:29:14;;;;;;;8.75;5.25;;;2.90;97.60;;;;;;4168531;28;20045;-87
2022/03/06 00:31:15;;;;;;;10.52;5.22;;;2.10;97.20;;;;;;4168222;28;20056;-88
2022/03/06 00:33:16;;;;;;;8.73;5.63;;;2.90;97.80;;;;;;4167605;28;20125;-87
2022/03/06 00:35:17;;;;;;;11.38;5.45;;;2.10;97.80;;;;;;4168071;28;20049;-87
2022/03/06 00:37:18;;;;;;;8.07;5.05;;;;;;;;;;4167873;28;20056;-87
2022/03/06 00:39:19;;;;;;;10.20;5.38;;;2.10;97.30;;;;;;4150545;28;20052;-87
2022/03/06 00:41:23;;;;;;;10.63;5.80;;;3.60;98.20;;;;;;4165987;28;20125;-87
2022/03/06 00:43:25;;;;;;;8.32;5.20;;;3.20;98.10;;;;;;4167828;28;20388;-87
2022/03/06 00:45:26;;;;;;;10.88;4.78;;;2.10;98.10;;;;;;4151171;28;20045;-86
2022/03/06 00:47:27;;;;;;;9.75;4.95;;;1.30;98.00;;;;;;4168241;28;20115;-87
2022/03/06 00:49:29;;;;;;;10.38;4.75;;;2.40;98.30;;;;;;4168100;28;20053;-87
2022/03/06 00:51:31;;;;;;;9.15;5.03;;;3.30;98.50;;;;;;4169312;28;20084;-87
2022/03/06 00:53:33;;;;;;;9.45;4.85;;;2.10;98.40;;;;;;4167656;28;20053;-87
2022/03/06 00:55:36;;;;;;;8.35;4.55;;;2.90;98.50;;;;;;4167880;28;20057;-87
2022/03/06 00:57:37;;;;;;;10.60;5.25;;;1.80;98.10;;;;;;4170242;28;20030;-87
2022/03/06 00:59:38;;;;;;;7.68;4.18;;;3.10;98.70;;;;;;4168625;28;20045;-87
2022/03/06 01:01:40;;;;;;;6.72;4.22;;;3.40;98.80;;;;;;4179213;28;20044;-87
2022/03/06 01:03:40;;;;;;;7.75;4.60;;;2.60;98.80;;;;;;4184225;28;20064;-87
2022/03/06 01:05:43;;;;;;;6.80;4.15;;;2.40;98.60;;;;;;4167287;28;20419;-87
2022/03/06 01:07:44;;;;;;;11.90;4.88;;;2.10;98.70;;;;;;4184748;28;20045;-88
2022/03/06 01:09:46;;;;;;;8.75;4.05;;;2.20;98.60;;;;;;4184867;28;20414;-87
2022/03/06 01:11:48;;;;;;;11.25;4.97;;;2.60;98.60;;;;;;4184040;28;20512;-87
2022/03/06 01:13:50;;;;;;;8.25;4.90;;;2.40;98.70;;;;;;4184486;28;20502;-87
2022/03/06 01:15:52;;;;;;;6.57;3.78;;;1.80;98.50;;;;;;4184256;28;20052;-87
2022/03/06 01:17:53;;;;;;;9.98;4.57;;;2.30;98.80;;;;;;4183950;28;20487;-87
2022/03/06 01:19:54;;;;;;;7.55;4.07;;;3.40;99.10;;;;;;4181761;28;20095;-87
2022/03/06 01:21:55;;;;;;;10.52;5.35;;;3.30;99.00;;;;;;4166514;28;20049;-87
2022/03/06 01:23:56;;;;;;;9.52;5.32;;;2.50;99.00;;;;;;4183440;28;20041;-87
2022/03/06 01:26:00;;;;;;;8.35;4.82;;;2.10;99.00;;;;;;4184287;28;20096;-89
2022/03/06 01:28:01;;;;;;;8.00;4.20;;;2.20;98.80;;;;;;4183231;28;20388;-86
2022/03/06 01:30:05;;;;;;;8.77;4.80;;;3.50;99.20;;;;;;4184349;28;20084;-87
2022/03/06 01:32:06;;;;;;;11.82;4.22;;;2.10;98.90;;;;;;4183243;28;20057;-87
2022/03/06 01:34:07;;;;;;;10.25;4.97;;;2.20;99.00;;;;;;4167167;28;20049;-86
2022/03/06 01:36:08;;;;;;;10.02;5.18;;;3.00;99.20;;;;;;4183498;28;20523;-87
2022/03/06 01:38:10;;;;;;;6.20;4.00;;;3.40;99.40;;;;;;4183070;28;20068;-87
2022/03/06 01:40:12;;;;;;;6.28;4.20;;;3.40;99.40;;;;;;4183251;28;20041;-88
2022/03/06 01:42:12;;;;;;;8.52;3.97;;;2.10;99.20;;;;;;4183764;28;20414;-87
2022/03/06 01:44:14;;;;;;;8.05;4.10;;;3.20;99.60;;;;;;4166197;28;20057;-87
2022/03/06 01:46:15;;;;;;;5.72;3.60;;;1.90;99.30;;;;;;4165720;28;20068;-87
2022/03/06 01:48:16;;;;;;;9.30;4.03;;;3.20;99.80;;;;;;4183934;28;20090;-87
2022/03/06 01:50:22;;;;;;;9.55;4.15;;;2.60;99.60;;;;;;4183760;28;20518;-86
2022/03/06 01:52:24;;;;;;;10.45;4.47;;;1.00;99.30;;;;;;4182513;28;20072;-87
2022/03/06 01:54:24;;;;;;;7.28;3.97;;;1.90;99.40;;;;;;4183364;28;20103;-87
2022/03/06 01:56:27;;;;;;;12.88;4.22;;;3.60;99.90;;;;;;4166599;28;20037;-87
2022/03/06 01:58:28;;;;;;;10.73;4.05;;;2.30;99.50;;;;;;4184118;28;20098;-86
2022/03/06 02:00:33;;;;;;;6.88;3.67;;;3.20;99.80;;;;;;4166081;28;20045;-87
2022/03/06 02:02:33;;;;;;;9.05;3.80;;;3.30;99.90;;;;;;4167183;28;20127;-87
2022/03/06 02:04:34;;;;;;;7.05;3.63;;;1.90;99.80;;;;;;4177748;28;20045;-87
2022/03/06 02:06:37;;;;;;;4.82;3.10;;;3.50;99.90;;;;;;4183067;28;20044;-87
2022/03/06 02:08:40;;;;;;;7.25;3.40;;;3.40;99.90;;;;;;4181561;28;20463;-87
2022/03/06 02:10:42;;;;;;;6.68;3.63;;;3.10;99.70;;;;;;4181836;28;20049;-87
2022/03/06 02:12:44;;;;;;;10.27;3.55;;;3.20;99.80;;;;;;4183128;28;20398;-87
2022/03/06 02:14:46;;;;;;;8.43;3.15;;;2.20;99.50;;;;;;4183190;28;20539;-86
2022/03/06 02:16:48;;;;;;;6.78;3.42;;;3.20;99.80;;;;;;4182968;28;20045;-86
2022/03/06 02:18:48;;;;;;;5.03;2.95;;;3.30;99.80;;;;;;4166223;28;20076;-87
2022/03/06 02:20:50;;;;;;;6.65;3.05;;;2.00;99.50;;;;;;4166114;28;20081;-87
2022/03/06 02:22:53;;;;;;;5.32;3.10;;;2.40;99.60;;;;;;4165805;28;20053;-87
2022/03/06 02:24:56;;;;;;;8.27;2.88;;;3.10;99.70;;;;;;4165206;28;20057;-88
2022/03/06 02:26:59;;;;;;;5.63;2.63;;;3.30;99.80;;;;;;4165574;28;20056;-87
2022/03/06 02:29:02;;;;;;;5.55;2.70;;;2.10;99.50;;;;;;4165434;28;20041;-87
2022/03/06 02:31:04;;;;;;;4.22;2.80;;;3.10;99.90;;;;;;4167740;28;20123;-87
2022/03/06 02:33:07;;;;;;;8.65;3.38;;;2.60;99.80;;;;;;4185817;28;20426;-87
2022/03/06 02:35:09;;;;;;;6.68;3.25;;;3.60;99.90;;;;;;4185996;28;20084;-86
2022/03/06 02:37:12;;;;;;;6.30;3.10;;;3.10;99.80;;;;;;4184729;28;20045;-87
2022/03/06 02:39:13;;;;;;;7.90;3.95;;;3.10;99.80;;;;;;4168352;28;20057;-87
2022/03/06 02:41:17;;;;;;;7.35;3.05;;;2.50;99.90;;;;;;4184841;28;20048;-87
2022/03/06 02:43:18;;;;;;;7.38;2.95;;;3.60;99.90;;;;;;4184308;28;20487;-86
2022/03/06 02:45:25;;;;;;;8.93;3.42;;;3.20;99.90;;;;;;4168590;28;20101;-86
2022/03/06 02:47:27;;;;;;;8.10;3.33;;;3.10;99.80;;;;;;4168126;28;20108;-86
2022/03/06 02:49:28;;;;;;;8.20;3.83;;;3.10;99.90;;;;;;4168345;28;20045;-86
2022/03/06 02:51:30;;;;;;;6.03;2.55;;;2.90;99.90;;;;;;4186241;28;20115;-86
2022/03/06 02:53:31;;;;;;;7.38;2.90;;;3.30;99.90;;;;;;4185781;28;20056;-87
2022/03/06 02:55:33;;;;;;;5.20;2.83;;;2.00;99.80;;;;;;4167805;28;20072;-87
2022/03/06 02:57:34;;;;;;;7.38;3.42;;;3.10;99.90;;;;;;4186319;28;20077;-87
2022/03/06 02:59:35;;;;;;;6.93;3.17;;;2.80;99.90;;;;;;4186176;28;20402;-87
2022/03/06 03:01:41;;;;;;;5.60;3.13;;;2.60;99.90;;;;;;4184708;28;20132;-87
2022/03/06 03:03:44;;;;;;;6.22;3.30;;;2.60;99.90;;;;;;4168055;28;20057;-88
2022/03/06 03:05:45;;;;;;;8.63;3.13;;;3.30;99.90;;;;;;4169913;28;20128;-87
2022/03/06 03:07:49;;;;;;;6.85;3.30;;;2.70;99.90;;;;;;4151942;28;20045;-87
2022/03/06 03:09:51;;;;;;;7.18;3.60;;;1.90;99.90;;;;;;4169644;28;20033;-87
2022/03/06 03:11:54;;;;;;;6.28;3.22;;;2.20;99.90;;;;;;4169399;28;20514;-87
2022/03/06 03:14:01;;;;;;;10.20;3.25;;;2.00;99.90;;;;;;4168145;28;20049;-87
2022/03/06 03:16:02;;;;;;;6.80;2.67;;;1.90;99.90;;;;;;4151858;28;20101;-87
2022/03/06 03:18:03;;;;;;;8.93;3.28;;;1.90;99.90;;;;;;4168857;28;20044;-87
2022/03/06 03:20:06;;;;;;;6.57;3.53;;;1.90;99.90;;;;;;4169210;28;20518;-88
2022/03/06 03:22:06;;;;;;;6.07;3.05;;;1.90;99.90;;;;;;4169191;28;20120;-86
2022/03/06 03:24:08;;;;;;;5.47;3.20;;;2.90;99.90;;;;;;4169304;28;20044;-87
2022/03/06 03:26:09;;;;;;;6.75;3.70;;;1.80;99.90;;;;;;4169195;28;20052;-87
2022/03/06 03:28:10;;;;;;;8.30;3.70;;;1.90;99.90;;;;;;4169313;28;20049;-87
2022/03/06 03:30:12;;;;;;;7.03;3.90;;;3.50;99.90;;;;;;4151416;28;20580;-87
2022/03/06 03:32:13;;;;;;;6.05;3.90;;;2.40;99.90;;;;;;4168253;28;20416;-87
2022/03/06 03:34:15;;;;;;;5.57;3.15;;;2.20;99.90;;;;;;4167505;28;20096;-86
2022/03/06 03:36:16;;;;;;;6.72;3.75;;;2.60;99.90;;;;;;4168444;28;20077;-87
2022/03/06 03:38:18;;;;;;;7.82;3.05;;;2.90;99.90;;;;;;4167691;28;20052;-86
2022/03/06 03:40:19;;;;;;;6.68;3.10;;;2.40;99.90;;;;;;4169445;28;20049;-87
2022/03/06 03:42:20;;;;;;;10.90;3.65;;;3.30;99.90;;;;;;4167976;28;20551;-86
2022/03/06 03:44:21;;;;;;;10.52;4.20;;;2.60;99.90;;;;;;4168609;28;20052;-87
2022/03/06 03:46:22;;;;;;;6.10;3.30;;;1.70;99.90;;;;;;4167356;28;20061;-87
2022/03/06 03:48:30;;;;;;;6.85;2.95;;;1.60;99.90;;;;;;4168573;28;20076;-86
2022/03/06 03:50:32;;;;;;;7.65;3.00;;;3.10;99.90;;;;;;4169095;28;20042;-87
2022/03/06 03:52:34;;;;;;;9.73;3.47;;;1.50;99.90;;;;;;4169434;28;20044;-87
2022/03/06 03:54:35;;;;;;;5.97;2.97;;;1.50;99.90;;;;;;4151852;28;20496;-87
2022/03/06 03:56:37;;;;;;;7.75;3.67;;;2.40;99.90;;;;;;4167857;28;20045;-87
2022/03/06 03:58:39;;;;;;;11.50;3.30;;;2.20;99.90;;;;;;4168177;28;20041;-86
2022/03/06 04:00:43;;;;;;;7.20;2.95;;;1.60;99.90;;;;;;4169852;28;20555;-87
2022/03/06 04:02:44;;;;;;;8.23;3.33;;;1.90;99.90;;;;;;4184924;28;20080;-86
2022/03/06 04:04:45;;;;;;;6.05;3.40;;;2.30;99.90;;;;;;4183801;28;20056;-87
2022/03/06 04:06:46;;;;;;;6.65;3.13;;;1.40;99.90;;;;;;4167361;28;20080;-86
2022/03/06 04:08:47;;;;;;;5.97;2.88;;;2.50;99.90;;;;;;4185349;28;20517;-86
2022/03/06 04:10:48;;;;;;;6.25;3.38;;;2.50;99.90;;;;;;4183836;28;20045;-87
2022/03/06 04:12:49;;;;;;;7.05;3.50;;;1.60;99.90;;;;;;4184501;28;20048;-87
2022/03/06 04:14:50;;;;;;;6.45;3.55;;;2.60;99.90;;;;;;4184860;28;20527;-87
2022/03/06 04:16:52;;;;;;;6.60;3.15;;;1.20;99.90;;;;;;4184211;28;20053;-86
2022/03/06 04:18:54;;;;;;;5.70;2.92;;;2.70;99.90;;;;;;4167326;28;20132;-86
2022/03/06 04:20:54;;;;;;;5.63;2.45;;;2.20;99.90;;;;;;4185996;28;20051;-86
2022/03/06 04:22:57;;;;;;;7.82;4.15;;;2.40;99.90;;;;;;4168815;28;20091;-86
2022/03/06 04:24:58;;;;;;;6.95;3.75;;;0.70;99.90;;;;;;4168303;28;20049;-86
2022/03/06 04:26:59;;;;;;;6.07;3.10;;;2.20;99.90;;;;;;4185454;28;20436;-87
2022/03/06 04:29:00;;;;;;;10.23;2.80;;;1.40;99.90;;;;;;4184568;28;20076;-87
2022/03/06 04:31:02;;;;;;;6.90;3.05;;;2.10;99.90;;;;;;4185774;28;20410;-86
2022/03/06 04:33:03;;;;;;;8.48;3.10;;;0.70;99.90;;;;;;4185837;28;20061;-87
2022/03/06 04:35:05;;;;;;;8.18;3.20;;;0.50;99.90;;;;;;4184728;28;20123;-87
2022/03/06 04:37:07;;;;;;;6.88;3.80;;;-0.30;99.90;;;;;;4184628;28;20431;-87
2022/03/06 04:39:08;;;;;;;8.15;3.45;;;2.20;99.90;;;;;;4186316;28;20427;-87
2022/03/06 04:41:09;;;;;;;5.63;3.17;;;0.80;99.90;;;;;;4186510;28;20453;-87
2022/03/06 04:43:10;;;;;;;5.72;3.45;;;1.70;99.90;;;;;;4168619;28;20049;-88
2022/03/06 04:45:12;;;;;;;5.72;3.30;;;0.70;99.90;;;;;;4168692;28;20542;-86
2022/03/06 04:47:14;;;;;;;5.32;3.20;;;0.40;99.90;;;;;;4185515;28;20090;-86
2022/03/06 04:49:15;;;;;;;10.02;3.10;;;1.40;99.90;;;;;;4186130;28;20037;-87
2022/03/06 04:51:22;;;;;;;8.35;3.47;;;0.30;99.90;;;;;;4183964;28;20422;-87
2022/03/06 04:53:23;;;;;;;5.35;2.78;;;0.40;99.90;;;;;;4185329;28;20064;-87
2022/03/06 04:55:24;;;;;;;8.88;3.22;;;0.60;99.90;;;;;;4185403;28;20045;-86
2022/03/06 04:57:26;;;;;;;9.82;3.10;;;1.10;99.90;;;;;;4186225;28;20045;-87
2022/03/06 04:59:28;;;;;;;8.70;2.80;;;0.80;99.90;;;;;;4184418;28;20037;-87
2022/03/06 05:01:29;;;;;;;5.22;2.92;;;2.50;99.90;;;;;;4184717;28;20123;-87
2022/03/06 05:03:30;;;;;;;5.85;3.00;;;0.70;99.90;;;;;;4185763;28;20045;-86
2022/03/06 05:05:31;;;;;;;5.18;2.60;;;1.70;99.90;;;;;;4186743;28;20048;-86
2022/03/06 05:07:33;;;;;;;7.38;3.08;;;-0.60;99.90;;;;;;4186783;28;20041;-87
2022/03/06 05:09:36;;;;;;;23.42;3.45;;;1.60;99.90;;;;;;4185755;28;20049;-86
2022/03/06 05:11:37;;;;;;;5.53;2.72;;;1.00;99.90;;;;;;4186638;28;20041;-86
2022/03/06 05:13:39;;;;;;;4.03;2.40;;;-0.20;99.90;;;;;;4168921;28;20128;-86
2022/03/06 05:15:42;;;;;;;7.07;2.65;;;0.20;99.90;;;;;;4168452;28;20045;-86
2022/03/06 05:17:44;;;;;;;6.45;3.08;;;1.30;99.90;;;;;;4185382;28;20056;-86
2022/03/06 05:19:44;;;;;;;5.40;2.58;;;1.20;99.90;;;;;;4185323;28;20041;-86
2022/03/06 05:21:45;;;;;;;6.85;2.88;;;0.50;99.90;;;;;;4186438;28;20048;-86
2022/03/06 05:23:47;;;;;;;7.97;3.17;;;0.10;99.90;;;;;;4168839;28;20096;-86
2022/03/06 05:25:48;;;;;;;3.97;2.40;;;0.10;99.90;;;;;;4169037;28;20045;-87
2022/03/06 05:27:50;;;;;;;7.68;3.10;;;1.20;99.90;;;;;;4186637;28;20074;-87
2022/03/06 05:29:51;;;;;;;5.80;2.75;;;1.20;99.90;;;;;;4168918;28;20056;-87
2022/03/06 05:31:52;;;;;;;5.72;2.75;;;0.20;99.90;;;;;;4186952;28;20083;-86
2022/03/06 05:33:54;;;;;;;6.82;2.85;;;0.20;99.90;;;;;;4185507;28;20061;-87
2022/03/06 05:35:55;;;;;;;8.73;2.60;;;-0.10;99.90;;;;;;4168868;28;20535;-87
2022/03/06 05:37:56;;;;;;;5.35;2.17;;;0.00;99.90;;;;;;4185667;28;20065;-86
2022/03/06 05:39:57;;;;;;;5.90;3.22;;;0.10;99.90;;;;;;4186668;28;20041;-86
2022/03/06 05:42:02;;;;;;;6.18;3.13;;;0.30;99.90;;;;;;4169052;28;20053;-87
2022/03/06 05:44:03;;;;;;;6.55;3.13;;;-0.10;99.90;;;;;;4182753;28;20053;-87
2022/03/06 05:46:05;;;;;;;6.25;2.78;;;-0.10;99.90;;;;;;4185137;28;20091;-87
2022/03/06 05:48:08;;;;;;;6.07;3.00;;;-0.10;99.90;;;;;;4168870;28;20080;-87
2022/03/06 05:50:10;;;;;;;5.25;3.10;;;-0.10;99.90;;;;;;4177369;28;20033;-88
2022/03/06 05:52:12;;;;;;;5.45;3.00;;;0.80;99.90;;;;;;4170135;28;20135;-87
2022/03/06 05:54:12;;;;;;;6.28;2.40;;;1.30;99.90;;;;;;4168721;28;20120;-87
2022/03/06 05:56:14;;;;;;;6.70;2.67;;;0.80;99.90;;;;;;4169463;28;20049;-87
2022/03/06 05:58:17;;;;;;;6.68;2.65;;;1.20;99.90;;;;;;4152728;28;20586;-87
2022/03/06 06:00:18;;;;;;;6.80;2.92;;;-0.40;99.90;;;;;;4168946;28;20052;-87
2022/03/06 06:02:23;;;;;;;5.80;2.40;;;0.80;99.90;;;;;;4185390;28;20543;-87
2022/03/06 06:04:25;;;;;;;4.93;2.55;;;-0.20;99.90;;;;;;4186627;28;20037;-87
2022/03/06 06:06:27;;;;;;;4.47;2.55;;;-0.10;99.90;;;;;;4185313;28;20079;-87
2022/03/06 06:08:29;;;;;;;4.90;2.72;;;-0.40;99.90;;;;;;4169869;28;20500;-86
2022/03/06 06:10:34;;;;;;;6.40;2.63;;;1.30;99.90;;;;;;4186285;28;20132;-85
2022/03/06 06:12:36;;;;;;;7.53;2.70;;;-0.40;99.90;;;;;;4185452;28;20460;-88
2022/03/06 06:14:37;;;;;;;4.40;2.30;;;-0.50;99.90;;;;;;4170243;28;20580;-87
2022/03/06 06:16:40;;;;;;;8.57;2.58;;;0.00;99.90;;;;;;4170534;28;20077;-88
2022/03/06 06:18:42;;;;;;;10.77;3.15;;;0.90;99.90;;;;;;4186794;28;20053;-88
2022/03/06 06:20:44;;;;;;;7.10;2.67;;;-0.50;99.90;;;;;;4186382;28;20072;-87
2022/03/06 06:22:45;;;;;;;5.20;2.38;;;-0.50;99.90;;;;;;4171130;28;20064;-87
2022/03/06 06:24:48;;;;;;;3.63;2.22;;;-0.20;99.90;;;;;;4188491;28;20040;-88
2022/03/06 06:26:51;;;;;;;5.07;2.70;;;-0.60;99.90;;;;;;4187853;28;20048;-88
2022/03/06 06:28:56;;;;;;;3.75;2.40;;;-0.20;99.90;;;;;;4187303;28;20072;-85
2022/03/06 06:30:56;;;;;;;3.42;1.90;;;-1.20;99.90;;;;;;4170134;28;20404;-87
2022/03/06 06:32:58;;;;;;;7.20;2.40;;;-1.20;99.90;;;;;;4186551;28;20060;-87
2022/03/06 06:34:59;;;;;;;3.35;1.77;;;-0.80;99.90;;;;;;4188738;28;20487;-86
2022/03/06 06:37:02;;;;;;;3.95;1.77;;;-0.30;99.90;;;;;;4190904;28;20476;-85
2022/03/06 06:39:03;;;;;;;9.35;1.80;;;-0.60;99.90;;;;;;4197510;28;20045;-85
2022/03/06 06:41:05;;;;;;;3.35;2.08;;;-0.50;99.90;;;;;;4199863;28;20159;-85
2022/03/06 06:43:11;;;;;;;2.53;1.90;;;0.90;99.90;;;;;;4199114;28;20071;-87
2022/03/06 06:45:20;;;;;;;6.78;2.65;;;1.00;99.90;;;;;;4199187;28;20462;-86
2022/03/06 06:47:22;;;;;;;4.03;1.95;;;0.50;99.90;;;;;;4183040;28;20042;-85
2022/03/06 06:49:23;;;;;;;2.83;2.10;;;-1.00;99.90;;;;;;4182151;28;20041;-85
2022/03/06 06:51:29;;;;;;;6.30;2.40;;;-0.30;99.90;;;;;;4199445;28;20041;-85
2022/03/06 06:53:31;;;;;;;4.18;1.92;;;-0.40;99.90;;;;;;4182505;28;20049;-86
2022/03/06 06:55:35;;;;;;;3.35;2.08;;;0.80;99.90;;;;;;4182341;28;20049;-85
2022/03/06 06:57:35;;;;;;;4.07;1.83;;;1.20;99.90;;;;;;4199569;28;20024;-85
2022/03/06 06:59:37;;;;;;;2.33;1.55;;;0.10;99.90;;;;;;4197804;28;20113;-85
2022/03/06 07:01:41;;;;;;;2.47;1.67;;;0.30;99.90;;;;;;4181970;28;20080;-86
2022/03/06 07:03:41;;;;;;;3.63;1.73;;;0.10;99.90;;;;;;4198900;28;20060;-87
2022/03/06 07:05:44;;;;;;;4.75;2.50;;;0.20;99.90;;;;;;4192282;28;20052;-87
2022/03/06 07:07:46;;;;;;;3.60;1.75;;;0.20;99.90;;;;;;4186022;28;20053;-87
2022/03/06 07:09:47;;;;;;;4.68;1.95;;;0.40;99.90;;;;;;4185687;28;20054;-87
2022/03/06 07:11:49;;;;;;;1.75;1.42;;;1.40;99.90;;;;;;4185124;28;20403;-87
2022/03/06 07:13:50;;;;;;;3.15;1.80;;;1.10;99.90;;;;;;4182758;28;20057;-87
2022/03/06 07:15:51;;;;;;;3.38;1.50;;;1.00;99.50;;;;;;4184271;28;20041;-86
2022/03/06 07:17:53;;;;;;;3.72;1.88;;;2.40;99.10;;;;;;4170001;28;20091;-87
2022/03/06 07:19:56;;;;;;;3.70;1.30;;;2.30;98.40;;;;;;4171567;28;20057;-87
2022/03/06 07:21:57;;;;;;;3.03;1.85;;;3.30;98.40;;;;;;4169586;28;20053;-87
2022/03/06 07:23:58;;;;;;;4.05;2.30;;;2.00;98.20;;;;;;4186878;28;20055;-87
2022/03/06 07:26:02;;;;;;;3.60;1.70;;;3.30;98.60;;;;;;4186378;28;20045;-87
2022/03/06 07:28:04;;;;;;;2.72;1.60;;;3.30;98.90;;;;;;4168072;28;20057;-88
2022/03/06 07:30:06;;;;;;;2.58;1.23;;;2.40;98.70;;;;;;4168472;28;20057;-87
2022/03/06 07:32:07;;;;;;;2.80;1.60;;;2.20;98.30;;;;;;4168272;28;20463;-87
2022/03/06 07:34:09;;;;;;;4.60;1.80;;;2.50;98.00;;;;;;4185939;28;20094;-88
2022/03/06 07:36:11;;;;;;;3.25;1.55;;;4.20;98.10;;;;;;4184748;28;20036;-88
2022/03/06 07:38:14;;;;;;;2.90;1.80;;;3.80;97.60;;;;;;4184995;28;20045;-87
2022/03/06 07:40:19;;;;;;;3.00;1.50;;;3.40;97.00;;;;;;4183038;28;20053;-88
2022/03/06 07:42:19;;;;;;;3.85;1.40;;;3.60;96.60;;;;;;4184759;28;20052;-87
2022/03/06 07:44:20;;;;;;;3.65;1.42;;;4.40;96.70;;;;;;4183823;28;20102;-87
2022/03/06 07:46:21;;;;;;;3.13;1.60;;;2.60;96.40;;;;;;4184725;28;20052;-87
2022/03/06 07:48:23;;;;;;;3.10;1.30;;;3.50;96.70;;;;;;4184470;28;20037;-88
2022/03/06 07:50:26;;;;;;;4.88;1.73;;;4.80;96.40;;;;;;4186871;28;20040;-88
2022/03/06 07:52:26;;;;;;;3.53;2.08;;;5.50;96.60;;;;;;4183266;28;20072;-88
2022/03/06 07:54:27;;;;;;;3.63;1.58;;;5.90;95.80;;;;;;4182435;28;20049;-87
2022/03/06 07:56:28;;;;;;;4.85;1.92;;;5.20;95.10;;;;;;4181654;28;20510;-86
2022/03/06 07:58:29;;;;;;;2.67;1.58;;;5.50;94.50;;;;;;4184380;28;20555;-88
2022/03/06 08:00:30;;;;;;;2.13;1.30;;;;;;;;;;4166977;28;20049;-87
2022/03/06 08:02:31;;;;;;;2.85;1.35;;;;;;;;;;4166198;28;20075;-86
2022/03/06 08:04:32;;;;;;;3.60;1.20;;;;;;;;;;4167435;28;20087;-87
2022/03/06 08:06:33;;;;;;;2.08;1.40;;;;;;;;;;4167369;28;20045;-87
2022/03/06 08:08:35;;;;;;;5.05;1.45;;;;;;;;;;4183401;28;20053;-86
2022/03/06 08:10:36;;;;;;;1.67;1.17;;;;;;;;;;4183387;28;20048;-87
2022/03/06 08:12:37;;;;;;;8.50;2.08;;;;;;;;;;4166318;28;20044;-87
2022/03/06 08:14:38;;;;;;;7.07;1.30;;;;;;;;;;4182070;28;20041;-87
2022/03/06 08:16:40;;;;;;;3.78;1.20;;;;;;;;;;4182949;28;20045;-87
2022/03/06 08:18:41;;;;;;;2.80;1.23;;;;;;;;;;4183308;28;20051;-88
2022/03/06 08:20:42;;;;;;;2.47;1.17;;;;;;;;;;4183806;28;20076;-87
2022/03/06 08:22:43;;;;;;;1.88;1.33;;;;;;;;;;4184114;28;20265;-87
2022/03/06 08:24:45;;;;;;;3.08;1.67;;;;;;;;;;4184103;28;20037;-87
2022/03/06 08:26:47;;;;;;;3.55;1.30;;;;;;;;;;4182871;28;20139;-87
2022/03/06 08:28:48;;;;;;;3.67;1.60;;;;;;;;;;4183462;28;20048;-86
2022/03/06 08:30:49;;;;;;;5.38;2.22;;;;;;;;;;4183969;28;20048;-87
2022/03/06 08:32:50;;;;;;;3.70;1.50;;;;;;;;;;4182262;28;20057;-87
2022/03/06 08:34:51;;;;;;;2.25;1.20;;;;;;;;;;4182459;28;20056;-86
2022/03/06 08:36:52;;;;;;;4.13;1.30;;;;;;;;;;4181913;28;20447;-86
2022/03/06 08:38:54;;;;;;;3.00;1.50;;;;;;;;;;4182637;28;20052;-87
2022/03/06 08:40:55;;;;;;;3.47;1.52;;;;;;;;;;4184229;28;20475;-87
2022/03/06 08:42:56;;;;;;;4.85;1.77;;;;;;;;;;4181997;28;20126;-88
2022/03/06 08:44:57;;;;;;;3.20;1.60;;;;;;;;;;4183826;28;20041;-87
2022/03/06 08:46:58;;;;;;;3.42;1.45;;;;;;;;;;4183653;28;20060;-87
2022/03/06 08:49:00;;;;;;;2.92;1.23;;;;;;;;;;4182253;28;20052;-88
2022/03/06 08:51:02;;;;;;;2.10;1.20;;;;;;;;;;4181754;28;20045;-87
2022/03/06 08:53:04;;;;;;;2.47;1.35;;;;;;;;;;4183013;28;20503;-86
2022/03/06 08:55:05;;;;;;;5.05;1.60;;;;;;;;;;4181453;28;20501;-87
2022/03/06 08:57:06;;;;;;;5.05;1.65;;;;;;;;;;4182368;28;20037;-88
2022/03/06 08:59:07;;;;;;;1.92;1.40;;;;;;;;;;4179315;28;20065;-87
2022/03/06 09:01:08;;;;;;;3.55;1.50;;;;;;;;;;4183367;28;20037;-87
2022/03/06 09:03:10;;;;;;;3.13;1.70;;;;;;;;;;4182714;28;20080;-87
2022/03/06 09:05:11;;;;;;;2.85;1.50;;;;;;;;;;4178551;28;20045;-87
2022/03/06 09:07:12;;;;;;;6.93;1.63;;;;;;;;;;4166996;28;20053;-88
2022/03/06 09:09:13;;;;;;;2.65;1.50;;;;;;;;;;4166836;28;20056;-87
2022/03/06 09:11:14;;;;;;;1.65;1.20;;;;;;;;;;4166403;28;20049;-88
2022/03/06 09:13:15;;;;;;;2.00;1.27;;;;;;;;;;4166187;28;20048;-87
2022/03/06 09:15:17;;;;;;;3.03;1.25;;;;;;;;;;4165955;28;20049;-86
2022/03/06 09:17:19;;;;;;;3.65;1.50;;;;;;;;;;4165738;28;20037;-86
2022/03/06 09:19:20;;;;;;;2.97;1.70;;;;;;;;;;4166010;28;20049;-87
2022/03/06 09:21:21;;;;;;;2.60;1.48;;;;;;;;;;4168384;28;20042;-87
2022/03/06 09:23:22;;;;;;;3.63;1.30;;;;;;;;;;4168357;28;20033;-90
2022/03/06 09:25:23;;;;;;;3.55;1.60;;;;;;;;;;4169586;28;20077;-87
2022/03/06 09:27:24;;;;;;;3.60;1.60;;;;;;;;;;4172196;28;20434;-88
2022/03/06 09:29:27;;;;;;;4.15;1.83;;;;;;;;;;4183648;28;20049;-87
2022/03/06 09:31:30;;;;;;;5.22;1.65;;;;;;;;;;4177096;28;20423;-86
2022/03/06 09:33:31;;;;;;;3.50;1.85;;;;;;;;;;4178669;28;20546;-86
2022/03/06 09:35:33;;;;;;;3.78;1.52;;;;;;;;;;4183121;28;20045;-87
2022/03/06 09:37:34;;;;;;;2.78;1.20;;;;;;;;;;4181088;28;20081;-86
2022/03/06 09:39:35;;;;;;;4.13;1.77;;;;;;;;;;4181822;28;20410;-87
2022/03/06 09:41:38;;;;;;;3.58;1.90;;;;;;;;;;4182283;28;20047;-89
2022/03/06 09:43:39;;;;;;;3.88;1.50;;;;;;;;;;4182765;28;20045;-87
2022/03/06 09:45:40;;;;;;;3.15;1.60;;;;;;;;;;4182994;28;20073;-87
2022/03/06 09:47:44;;;;;;;3.58;1.70;;;;;;;;;;4167878;28;20067;-89
2022/03/06 09:49:47;;;;;;;4.22;2.05;;;;;;;;;;4165898;28;20081;-87
2022/03/06 09:51:50;;;;;;;2.80;1.40;;;;;;;;;;4166603;28;20395;-88
2022/03/06 09:53:55;;;;;;;5.63;1.52;;;;;;;;;;4174764;28;20111;-88
2022/03/06 09:55:56;;;;;;;3.45;1.48;;;;;;;;;;4182356;28;20060;-87
2022/03/06 09:57:58;;;;;;;2.97;1.30;;;;;;;;;;4181595;28;20049;-88
2022/03/06 09:59:59;;;;;;;4.38;1.52;;;;;;;;;;4181725;28;20052;-87
2022/03/06 10:02:01;;;;;;;3.67;1.48;;;;;;;;;;4182049;28;20043;-87
2022/03/06 10:04:23;;;;;;;4.22;1.63;;;;;;;;;;4182023;28;20080;-89
2022/03/06 10:06:25;;;;;;;2.05;1.27;;;;;;;;;;4183196;28;20534;-88
2022/03/06 10:08:27;;;;;;;4.78;1.42;;;;;;;;;;4183276;28;20037;-88
2022/03/06 10:10:37;;;;;;;5.25;1.30;;;;;;;;;;4182135;28;20134;-88
2022/03/06 10:12:40;;;;;;;3.33;1.40;;;;;;;;;;4183105;28;20045;-87
2022/03/06 10:14:44;;;;;;;5.90;2.10;;;;;;;;;;4182482;28;20079;-87
2022/03/06 10:17:05;;;;;;;5.25;2.05;;;;;;;;;;4183222;28;20052;-88
2022/03/06 10:19:06;;;;;;;3.05;1.30;;;;;;;;;;4181817;28;20079;-88
2022/03/06 10:21:12;;;;;;;3.63;1.40;;;;;;;;;;4182310;28;20567;-88
2022/03/06 10:23:25;;;;;;;1.77;1.35;;;;;;;;;;4182562;28;20071;-88
2022/03/06 10:25:27;;;;;;;2.70;1.67;;;;;;;;;;4180993;28;20124;-88
2022/03/06 10:27:46;;;;;;;2.45;1.38;;;;;;;;;;4181938;28;20128;-88
2022/03/06 10:29:48;;;;;;;4.63;1.30;;;;;;;;;;4180952;28;20049;-86
2022/03/06 10:31:58;;;;;;;4.80;1.50;;;;;;;;;;4192753;28;20482;-88
2022/03/06 10:34:10;;;;;;;2.38;1.33;;;;;;;;;;4174481;28;20043;-88
2022/03/06 10:36:12;;;;;;;4.13;1.50;;;;;;;;;;4180994;28;20040;-88
2022/03/06 10:38:20;;;;;;;1.92;1.38;;;;;;;;;;4182472;28;20055;-88
2022/03/06 10:40:35;;;;;;;5.97;1.77;;;;;;;;;;4181782;28;20064;-88
2022/03/06 10:42:36;;;;;;;2.47;1.40;;;;;;;;;;4180376;28;20367;-89
2022/03/06 10:44:45;;;;;;;4.97;1.90;;;;;;;;;;4180794;28;20478;-88
2022/03/06 10:47:03;;;;;;;2.42;1.35;;;;;;;;;;4180320;28;20060;-88
2022/03/06 10:49:08;;;;;;;5.72;1.50;;;;;;;;;;4182140;28;20548;-88
2022/03/06 10:51:12;;;;;;;2.50;1.35;;;;;;;;;;4181674;28;20056;-88
2022/03/06 10:53:23;;;;;;;3.90;1.55;;;;;;;;;;4184007;28;20495;-87
2022/03/06 10:55:35;;;;;;;3.58;1.42;;;;;;;;;;4184664;28;20049;-89
2022/03/06 10:57:36;;;;;;;4.15;1.33;;;;;;;;;;4185848;28;20091;-89
2022/03/06 10:59:38;;;;;;;3.40;1.92;;;;;;;;;;4184179;28;20048;-88
2022/03/06 11:01:40;;;;;;;3.40;1.83;;;;;;;;;;4184922;28;20056;-89
2022/03/06 11:03:41;;;;;;;3.25;1.20;;;;;;;;;;4179481;28;20037;-87
2022/03/06 11:05:45;;;;;;;4.60;2.22;;;;;;;;;;4183758;28;20040;-87